Latest Weather Observations for Little Bay

IDN60801

Issued at 11:02 am EDT Tuesday 31 March 2015 (issued every 30 minutes, with the page automatically refreshed every 10 minutes)

About weather observations | Map of weather stations | Latest weather observations for NSW | Other Formats
Station Details ID: 066051 Name: LITTLE BAY (THE COAST GOLF CLUB) Lat: -33.98 Lon: 151.25 Height: 22.0 m
Data from the previous 72 hours. | See also: Recent months for locations in New South Wales
Date/Time
EDT
Temp
°C
App
Temp
°C
Dew
Point
Rel
Hum
%
Delta-T
°C
Wind Press
QNH
hPa
Press
MSL
hPa
Rain
since 9 am
mm
Dir
 
Spd
km/h
Gust
km/h
Spd
kts
Gust
kts
31/11:00am - - - - - S 22 30 12 16 - - -
31/10:30am - - - - - SSE 19 26 10 14 - - -
31/10:00am - - - - - S 17 22 9 12 - - -
31/09:30am - - - - - SSE 15 20 8 11 - - -
31/09:00am - - - - - SSE 17 22 9 12 - - -
31/08:30am - - - - - SSE 19 24 10 13 - - -
31/08:00am - - - - - SE 15 19 8 10 - - -
31/07:30am - - - - - SE 17 20 9 11 - - -
31/07:00am - - - - - SSE 13 17 7 9 - - -
31/06:30am - - - - - SSE 9 15 5 8 - - -
31/06:00am - - - - - CALM 0 0 0 0 - - -
31/05:30am - - - - - W 6 6 3 3 - - -
31/05:00am - - - - - CALM 0 0 0 0 - - -
31/04:30am - - - - - W 4 6 2 3 - - -
31/04:00am - - - - - W 7 9 4 5 - - -
31/03:30am - - - - - W 7 9 4 5 - - -
31/03:00am - - - - - WNW 2 4 1 2 - - -
31/02:30am - - - - - W 4 6 2 3 - - -
31/02:00am - - - - - WNW 6 7 3 4 - - -
31/01:30am - - - - - NW 4 6 2 3 - - -
31/01:00am - - - - - NNW 4 6 2 3 - - -
31/12:30am - - - - - WNW 2 6 1 3 - - -
31/12:00am - - - - - NNW 7 13 4 7 - - -
 
Date/Time
EDT
Temp
°C
App
Temp
°C
Dew
Point
Rel
Hum
%
Delta-T
°C
Wind Press
QNH
hPa
Press
MSL
hPa
Rain
since 9 am
mm
Dir
 
Spd
km/h
Gust
km/h
Spd
kts
Gust
kts
30/11:30pm - - - - - E 13 26 7 14 - - -
30/11:00pm - - - - - SE 11 15 6 8 - - -
30/10:30pm - - - - - SE 11 13 6 7 - - -
30/10:00pm - - - - - SE 7 9 4 5 - - -
30/09:30pm - - - - - ESE 6 6 3 3 - - -
30/09:00pm - - - - - ESE 6 7 3 4 - - -
30/08:30pm - - - - - CALM 0 0 0 0 - - -
30/08:00pm - - - - - CALM 0 0 0 0 - - -
30/07:30pm - - - - - NNE 4 6 2 3 - - -
30/07:00pm - - - - - NE 6 7 3 4 - - -
30/06:30pm - - - - - ENE 7 9 4 5 - - -
30/06:00pm - - - - - ENE 9 11 5 6 - - -
30/05:30pm - - - - - ENE 9 13 5 7 - - -
30/05:00pm - - - - - ENE 9 13 5 7 - - -
30/04:30pm - - - - - E 9 13 5 7 - - -
30/04:00pm - - - - - ENE 11 15 6 8 - - -
30/03:30pm - - - - - NE 19 22 10 12 - - -
30/03:00pm - - - - - NE 13 17 7 9 - - -
30/02:30pm - - - - - ENE 6 9 3 5 - - -
30/02:00pm - - - - - E 4 6 2 3 - - -
30/01:30pm - - - - - ESE 7 11 4 6 - - -
30/01:00pm - - - - - E 13 20 7 11 - - -
30/12:30pm - - - - - ESE 17 22 9 12 - - -
30/12:00pm - - - - - SSE 13 19 7 10 - - -
30/11:30am - - - - - SSE 19 24 10 13 - - -
30/11:00am - - - - - S 11 17 6 9 - - -
30/10:30am - - - - - NE 26 35 14 19 - - -
30/10:00am - - - - - SSE 15 20 8 11 - - -
30/09:30am - - - - - SSW 11 20 6 11 - - -
30/09:00am - - - - - WSW 7 11 4 6 - - -
30/08:30am - - - - - W 9 13 5 7 - - -
30/08:00am - - - - - W 9 11 5 6 - - -
30/07:30am - - - - - W 9 11 5 6 - - -
30/07:00am - - - - - WNW 9 13 5 7 - - -
30/06:30am - - - - - W 9 11 5 6 - - -
30/06:00am - - - - - W 7 7 4 4 - - -
30/05:30am - - - - - W 7 9 4 5 - - -
30/05:00am - - - - - W 7 7 4 4 - - -
30/04:30am - - - - - W 7 9 4 5 - - -
30/04:00am - - - - - WSW 6 6 3 3 - - -
30/03:30am - - - - - SW 6 7 3 4 - - -
30/03:00am - - - - - SW 6 7 3 4 - - -
30/02:30am - - - - - WSW 4 6 2 3 - - -
30/02:00am - - - - - WSW 4 6 2 3 - - -
30/01:30am - - - - - W 6 6 3 3 - - -
30/01:00am - - - - - W 6 6 3 3 - - -
30/12:30am - - - - - W 6 7 3 4 - - -
30/12:00am - - - - - NNW 4 6 2 3 - - -
 
Date/Time
EDT
Temp
°C
App
Temp
°C
Dew
Point
Rel
Hum
%
Delta-T
°C
Wind Press
QNH
hPa
Press
MSL
hPa
Rain
since 9 am
mm
Dir
 
Spd
km/h
Gust
km/h
Spd
kts
Gust
kts
29/11:30pm - - - - - N 6 7 3 4 - - -
29/11:00pm - - - - - NNE 9 13 5 7 - - -
29/10:30pm - - - - - NNE 13 20 7 11 - - -
29/10:00pm - - - - - NNE 17 22 9 12 - - -
29/09:30pm - - - - - NNE 17 22 9 12 - - -
29/09:00pm - - - - - NNE 20 28 11 15 - - -
29/08:30pm - - - - - NNE 20 30 11 16 - - -
29/08:00pm - - - - - NNE 22 28 12 15 - - -
29/07:30pm - - - - - NNE 20 28 11 15 - - -
29/07:00pm - - - - - NNE 22 28 12 15 - - -
29/06:30pm - - - - - NNE 24 30 13 16 - - -
29/06:00pm - - - - - NNE 24 32 13 17 - - -
29/05:30pm - - - - - NNE 22 32 12 17 - - -
29/05:00pm - - - - - NNE 22 28 12 15 - - -
29/04:30pm - - - - - NE 20 26 11 14 - - -
29/04:00pm - - - - - NE 20 26 11 14 - - -
29/03:30pm - - - - - NE 19 24 10 13 - - -
29/03:00pm - - - - - NE 20 26 11 14 - - -
29/02:30pm - - - - - NE 19 24 10 13 - - -
29/02:00pm - - - - - NE 19 22 10 12 - - -
29/01:30pm - - - - - NE 17 20 9 11 - - -
29/01:00pm - - - - - NE 15 20 8 11 - - -
29/12:30pm - - - - - NE 9 13 5 7 - - -
29/12:00pm - - - - - NE 13 20 7 11 - - -
29/11:30am - - - - - N 7 13 4 7 - - -
29/11:00am - - - - - WNW 9 13 5 7 - - -
29/10:30am - - - - - WNW 11 17 6 9 - - -
29/10:00am - - - - - W 9 13 5 7 - - -
29/09:30am - - - - - WNW 9 13 5 7 - - -
29/09:00am - - - - - WNW 9 15 5 8 - - -
29/08:30am - - - - - WNW 9 13 5 7 - - -
29/08:00am - - - - - WNW 9 13 5 7 - - -
29/07:30am - - - - - WNW 11 15 6 8 - - -
29/07:00am - - - - - WNW 11 13 6 7 - - -
29/06:30am - - - - - WNW 9 13 5 7 - - -
29/06:00am - - - - - WNW 11 15 6 8 - - -
29/05:30am - - - - - WNW 11 13 6 7 - - -
29/05:00am - - - - - WNW 9 13 5 7 - - -
29/04:30am - - - - - WNW 9 11 5 6 - - -
29/04:00am - - - - - WNW 9 13 5 7 - - -
29/03:30am - - - - - WNW 7 11 4 6 - - -
29/03:00am - - - - - W 7 7 4 4 - - -
29/02:30am - - - - - WNW 2 6 1 3 - - -
29/02:00am - - - - - CALM 0 0 0 0 - - -
29/01:30am - - - - - CALM 0 4 0 2 - - -
29/01:00am - - - - - CALM 0 0 0 0 - - -
29/12:30am - - - - - NNW 4 6 2 3 - - -
29/12:00am - - - - - NNE 2 4 1 2 - - -
 
Date/Time
EDT
Temp
°C
App
Temp
°C
Dew
Point
Rel
Hum
%
Delta-T
°C
Wind Press
QNH
hPa
Press
MSL
hPa
Rain
since 9 am
mm
Dir
 
Spd
km/h
Gust
km/h
Spd
kts
Gust
kts
28/11:30pm - - - - - ENE 4 6 2 3 - - -
28/11:00pm - - - - - E 7 9 4 5 - - -
28/10:30pm - - - - - ESE 6 9 3 5 - - -
28/10:00pm - - - - - ESE 9 13 5 7 - - -
28/09:30pm - - - - - ESE 11 19 6 10 - - -
28/09:00pm - - - - - ESE 13 17 7 9 - - -
28/08:30pm - - - - - ESE 15 20 8 11 - - -
28/08:00pm - - - - - SE 13 17 7 9 - - -
28/07:30pm - - - - - SE 13 17 7 9 - - -
28/07:00pm - - - - - SE 15 19 8 10 - - -
28/06:30pm - - - - - SE 13 19 7 10 - - -
28/06:00pm - - - - - SE 15 19 8 10 - - -
28/05:30pm - - - - - SE 13 17 7 9 - - -
28/05:00pm - - - - - SE 15 19 8 10 - - -
28/04:30pm - - - - - SE 15 20 8 11 - - -
28/04:00pm - - - - - SSE 17 20 9 11 - - -
28/03:30pm - - - - - SSE 17 22 9 12 - - -
28/03:00pm - - - - - SSE 17 22 9 12 - - -
28/02:30pm - - - - - SSE 17 22 9 12 - - -
28/02:00pm - - - - - SSE 17 22 9 12 - - -
28/01:30pm - - - - - SSE 19 22 10 12 - - -
28/01:00pm - - - - - SSE 17 22 9 12 - - -
28/12:30pm - - - - - S 17 22 9 12 - - -
28/12:00pm - - - - - S 17 22 9 12 - - -
28/11:30am - - - - - S 15 20 8 11 - - -

Other Formats:

Comma delimited format used in spreadsheet applications
http://www.bom.gov.au/fwo/IDN60801/IDN60801.94780.axf

JavaScript Object Notation format (JSON) in row-major order
http://www.bom.gov.au/fwo/IDN60801/IDN60801.94780.json